sensor_id;sensor_type;location;lat;lon;timestamp;P1;durP1;ratioP1;P2;durP2;ratioP2
11139;SDS011;5624;49.388;11.350;2022-07-29T00:00:42;4.22;;;1.70;;
11139;SDS011;5624;49.388;11.350;2022-07-29T00:03:09;4.22;;;1.83;;
11139;SDS011;5624;49.388;11.350;2022-07-29T00:05:38;5.72;;;2.05;;
11139;SDS011;5624;49.388;11.350;2022-07-29T00:08:04;3.28;;;2.03;;
11139;SDS011;5624;49.388;11.350;2022-07-29T00:10:30;4.85;;;1.98;;
11139;SDS011;5624;49.388;11.350;2022-07-29T00:12:56;6.10;;;2.10;;
11139;SDS011;5624;49.388;11.350;2022-07-29T00:15:22;4.45;;;1.80;;
11139;SDS011;5624;49.388;11.350;2022-07-29T00:17:47;5.47;;;2.20;;
11139;SDS011;5624;49.388;11.350;2022-07-29T00:20:13;4.38;;;1.88;;
11139;SDS011;5624;49.388;11.350;2022-07-29T00:22:38;5.28;;;2.35;;
11139;SDS011;5624;49.388;11.350;2022-07-29T00:25:04;3.00;;;1.67;;
11139;SDS011;5624;49.388;11.350;2022-07-29T00:27:31;4.18;;;2.00;;
11139;SDS011;5624;49.388;11.350;2022-07-29T00:29:57;2.92;;;1.70;;
11139;SDS011;5624;49.388;11.350;2022-07-29T00:32:22;3.08;;;1.70;;
11139;SDS011;5624;49.388;11.350;2022-07-29T00:34:48;4.93;;;1.40;;
11139;SDS011;5624;49.388;11.350;2022-07-29T00:37:32;4.13;;;1.50;;
11139;SDS011;5624;49.388;11.350;2022-07-29T00:39:58;5.10;;;1.88;;
11139;SDS011;5624;49.388;11.350;2022-07-29T00:42:24;6.15;;;2.10;;
11139;SDS011;5624;49.388;11.350;2022-07-29T00:44:49;5.03;;;1.92;;
11139;SDS011;5624;49.388;11.350;2022-07-29T00:47:15;5.25;;;2.28;;
11139;SDS011;5624;49.388;11.350;2022-07-29T00:49:41;3.58;;;1.98;;
11139;SDS011;5624;49.388;11.350;2022-07-29T00:52:08;4.43;;;1.77;;
11139;SDS011;5624;49.388;11.350;2022-07-29T00:54:35;3.25;;;1.58;;
11139;SDS011;5624;49.388;11.350;2022-07-29T00:57:02;5.10;;;2.15;;
11139;SDS011;5624;49.388;11.350;2022-07-29T00:59:28;2.90;;;1.80;;
11139;SDS011;5624;49.388;11.350;2022-07-29T01:01:54;3.30;;;1.88;;
11139;SDS011;5624;49.388;11.350;2022-07-29T01:04:20;5.03;;;1.70;;
11139;SDS011;5624;49.388;11.350;2022-07-29T01:06:47;3.25;;;1.67;;
11139;SDS011;5624;49.388;11.350;2022-07-29T01:09:14;2.95;;;1.85;;
11139;SDS011;5624;49.388;11.350;2022-07-29T01:11:41;5.72;;;1.90;;
11139;SDS011;5624;49.388;11.350;2022-07-29T01:14:08;4.00;;;1.95;;
11139;SDS011;5624;49.388;11.350;2022-07-29T01:16:55;5.65;;;2.58;;
11139;SDS011;5624;49.388;11.350;2022-07-29T01:29:59;3.67;;;2.20;;
11139;SDS011;5624;49.388;11.350;2022-07-29T01:32:28;4.07;;;2.20;;
11139;SDS011;5624;49.388;11.350;2022-07-29T01:37:43;4.25;;;2.33;;
11139;SDS011;5624;49.388;11.350;2022-07-29T01:40:14;4.75;;;2.17;;
11139;SDS011;5624;49.388;11.350;2022-07-29T01:42:48;4.93;;;2.42;;
11139;SDS011;5624;49.388;11.350;2022-07-29T01:45:19;6.50;;;2.75;;
11139;SDS011;5624;49.388;11.350;2022-07-29T01:48:02;3.33;;;2.17;;
11139;SDS011;5624;49.388;11.350;2022-07-29T01:50:53;7.70;;;2.58;;
11139;SDS011;5624;49.388;11.350;2022-07-29T01:53:38;4.45;;;2.15;;
11139;SDS011;5624;49.388;11.350;2022-07-29T01:56:08;4.25;;;2.22;;
11139;SDS011;5624;49.388;11.350;2022-07-29T01:58:36;5.78;;;2.25;;
11139;SDS011;5624;49.388;11.350;2022-07-29T02:01:06;3.78;;;2.17;;
11139;SDS011;5624;49.388;11.350;2022-07-29T02:03:34;3.90;;;2.25;;
11139;SDS011;5624;49.388;11.350;2022-07-29T02:06:03;3.72;;;2.08;;
11139;SDS011;5624;49.388;11.350;2022-07-29T02:08:32;3.20;;;2.00;;
11139;SDS011;5624;49.388;11.350;2022-07-29T02:10:59;5.25;;;2.50;;
11139;SDS011;5624;49.388;11.350;2022-07-29T02:13:28;5.57;;;2.67;;
11139;SDS011;5624;49.388;11.350;2022-07-29T02:15:57;3.30;;;1.80;;
11139;SDS011;5624;49.388;11.350;2022-07-29T02:18:25;5.00;;;2.05;;
11139;SDS011;5624;49.388;11.350;2022-07-29T02:20:53;3.35;;;1.92;;
11139;SDS011;5624;49.388;11.350;2022-07-29T02:23:21;6.82;;;2.47;;
11139;SDS011;5624;49.388;11.350;2022-07-29T02:25:49;4.00;;;2.50;;
11139;SDS011;5624;49.388;11.350;2022-07-29T02:28:17;3.80;;;2.38;;
11139;SDS011;5624;49.388;11.350;2022-07-29T02:30:45;4.15;;;2.47;;
11139;SDS011;5624;49.388;11.350;2022-07-29T02:33:13;5.88;;;2.35;;
11139;SDS011;5624;49.388;11.350;2022-07-29T02:35:40;3.60;;;2.15;;
11139;SDS011;5624;49.388;11.350;2022-07-29T02:38:08;4.18;;;2.30;;
11139;SDS011;5624;49.388;11.350;2022-07-29T02:41:13;5.65;;;2.47;;
11139;SDS011;5624;49.388;11.350;2022-07-29T02:43:41;3.80;;;2.15;;
11139;SDS011;5624;49.388;11.350;2022-07-29T02:46:11;4.70;;;2.17;;
11139;SDS011;5624;49.388;11.350;2022-07-29T02:48:43;6.40;;;2.10;;
11139;SDS011;5624;49.388;11.350;2022-07-29T02:51:17;4.05;;;2.38;;
11139;SDS011;5624;49.388;11.350;2022-07-29T02:53:49;4.93;;;2.30;;
11139;SDS011;5624;49.388;11.350;2022-07-29T02:56:17;3.22;;;2.20;;
11139;SDS011;5624;49.388;11.350;2022-07-29T02:58:52;5.60;;;2.40;;
11139;SDS011;5624;49.388;11.350;2022-07-29T03:01:21;4.88;;;1.90;;
11139;SDS011;5624;49.388;11.350;2022-07-29T03:03:51;5.35;;;2.20;;
11139;SDS011;5624;49.388;11.350;2022-07-29T03:06:19;2.40;;;2.00;;
11139;SDS011;5624;49.388;11.350;2022-07-29T03:08:47;5.38;;;2.45;;
11139;SDS011;5624;49.388;11.350;2022-07-29T03:11:14;5.07;;;2.70;;
11139;SDS011;5624;49.388;11.350;2022-07-29T03:13:41;4.95;;;2.40;;
11139;SDS011;5624;49.388;11.350;2022-07-29T03:16:07;4.50;;;2.08;;
11139;SDS011;5624;49.388;11.350;2022-07-29T03:18:33;8.13;;;2.20;;
11139;SDS011;5624;49.388;11.350;2022-07-29T03:21:00;4.50;;;2.00;;
11139;SDS011;5624;49.388;11.350;2022-07-29T03:23:26;6.57;;;2.35;;
11139;SDS011;5624;49.388;11.350;2022-07-29T03:25:53;5.15;;;2.22;;
11139;SDS011;5624;49.388;11.350;2022-07-29T03:28:19;4.63;;;2.33;;
11139;SDS011;5624;49.388;11.350;2022-07-29T03:30:46;3.75;;;1.85;;
11139;SDS011;5624;49.388;11.350;2022-07-29T03:33:12;4.65;;;2.10;;
11139;SDS011;5624;49.388;11.350;2022-07-29T03:35:38;4.88;;;2.10;;
11139;SDS011;5624;49.388;11.350;2022-07-29T03:38:04;3.15;;;2.10;;
11139;SDS011;5624;49.388;11.350;2022-07-29T03:40:49;3.65;;;1.95;;
11139;SDS011;5624;49.388;11.350;2022-07-29T03:43:18;4.82;;;2.15;;
11139;SDS011;5624;49.388;11.350;2022-07-29T03:45:45;4.05;;;2.00;;
11139;SDS011;5624;49.388;11.350;2022-07-29T03:48:16;4.53;;;2.35;;
11139;SDS011;5624;49.388;11.350;2022-07-29T03:50:45;2.85;;;2.13;;
11139;SDS011;5624;49.388;11.350;2022-07-29T03:53:11;5.90;;;2.00;;
11139;SDS011;5624;49.388;11.350;2022-07-29T03:55:40;3.38;;;2.45;;
11139;SDS011;5624;49.388;11.350;2022-07-29T03:58:09;4.90;;;2.20;;
11139;SDS011;5624;49.388;11.350;2022-07-29T04:00:37;4.03;;;2.00;;
11139;SDS011;5624;49.388;11.350;2022-07-29T04:03:04;5.07;;;2.33;;
11139;SDS011;5624;49.388;11.350;2022-07-29T04:05:30;5.05;;;2.50;;
11139;SDS011;5624;49.388;11.350;2022-07-29T04:07:56;4.03;;;2.30;;
11139;SDS011;5624;49.388;11.350;2022-07-29T04:10:21;3.83;;;2.08;;
11139;SDS011;5624;49.388;11.350;2022-07-29T04:12:50;3.80;;;2.28;;
11139;SDS011;5624;49.388;11.350;2022-07-29T04:15:16;8.00;;;2.72;;
11139;SDS011;5624;49.388;11.350;2022-07-29T04:17:42;3.92;;;2.42;;
11139;SDS011;5624;49.388;11.350;2022-07-29T04:20:08;4.05;;;2.33;;
11139;SDS011;5624;49.388;11.350;2022-07-29T04:22:34;3.03;;;2.42;;
11139;SDS011;5624;49.388;11.350;2022-07-29T04:25:00;5.70;;;2.25;;
11139;SDS011;5624;49.388;11.350;2022-07-29T04:27:26;4.40;;;2.55;;
11139;SDS011;5624;49.388;11.350;2022-07-29T04:29:51;4.35;;;2.20;;
11139;SDS011;5624;49.388;11.350;2022-07-29T04:32:17;5.35;;;2.40;;
11139;SDS011;5624;49.388;11.350;2022-07-29T04:34:43;3.80;;;1.88;;
11139;SDS011;5624;49.388;11.350;2022-07-29T04:37:11;6.65;;;2.53;;
11139;SDS011;5624;49.388;11.350;2022-07-29T04:39:37;3.42;;;2.40;;
11139;SDS011;5624;49.388;11.350;2022-07-29T04:42:03;4.20;;;2.10;;
11139;SDS011;5624;49.388;11.350;2022-07-29T04:44:29;9.32;;;2.22;;
11139;SDS011;5624;49.388;11.350;2022-07-29T04:46:56;6.35;;;2.58;;
11139;SDS011;5624;49.388;11.350;2022-07-29T04:49:23;5.28;;;2.00;;
11139;SDS011;5624;49.388;11.350;2022-07-29T04:51:49;5.30;;;2.20;;
11139;SDS011;5624;49.388;11.350;2022-07-29T04:54:15;5.40;;;2.63;;
11139;SDS011;5624;49.388;11.350;2022-07-29T04:56:41;4.35;;;2.33;;
11139;SDS011;5624;49.388;11.350;2022-07-29T04:59:06;4.00;;;1.95;;
11139;SDS011;5624;49.388;11.350;2022-07-29T05:01:32;5.28;;;2.30;;
11139;SDS011;5624;49.388;11.350;2022-07-29T05:03:59;5.07;;;2.13;;
11139;SDS011;5624;49.388;11.350;2022-07-29T05:06:24;6.18;;;2.50;;
11139;SDS011;5624;49.388;11.350;2022-07-29T05:08:50;4.63;;;2.47;;
11139;SDS011;5624;49.388;11.350;2022-07-29T05:11:16;7.20;;;2.80;;
11139;SDS011;5624;49.388;11.350;2022-07-29T05:13:41;4.28;;;2.10;;
11139;SDS011;5624;49.388;11.350;2022-07-29T05:16:07;4.53;;;2.58;;
11139;SDS011;5624;49.388;11.350;2022-07-29T05:18:33;5.13;;;2.47;;
11139;SDS011;5624;49.388;11.350;2022-07-29T05:20:59;4.70;;;2.63;;
11139;SDS011;5624;49.388;11.350;2022-07-29T05:23:25;5.78;;;2.50;;
11139;SDS011;5624;49.388;11.350;2022-07-29T05:25:51;5.35;;;2.30;;
11139;SDS011;5624;49.388;11.350;2022-07-29T05:28:16;4.47;;;2.30;;
11139;SDS011;5624;49.388;11.350;2022-07-29T05:30:42;4.20;;;2.30;;
11139;SDS011;5624;49.388;11.350;2022-07-29T05:33:09;4.60;;;2.63;;
11139;SDS011;5624;49.388;11.350;2022-07-29T05:35:35;5.55;;;2.58;;
11139;SDS011;5624;49.388;11.350;2022-07-29T05:38:02;9.20;;;3.38;;
11139;SDS011;5624;49.388;11.350;2022-07-29T05:40:28;9.45;;;2.80;;
11139;SDS011;5624;49.388;11.350;2022-07-29T05:42:54;15.00;;;3.20;;
11139;SDS011;5624;49.388;11.350;2022-07-29T05:45:20;12.05;;;3.33;;
11139;SDS011;5624;49.388;11.350;2022-07-29T05:47:46;6.30;;;2.65;;
11139;SDS011;5624;49.388;11.350;2022-07-29T05:50:12;4.32;;;2.28;;
11139;SDS011;5624;49.388;11.350;2022-07-29T05:52:38;5.18;;;2.15;;
11139;SDS011;5624;49.388;11.350;2022-07-29T05:55:04;5.47;;;2.30;;
11139;SDS011;5624;49.388;11.350;2022-07-29T05:57:30;4.35;;;2.22;;
11139;SDS011;5624;49.388;11.350;2022-07-29T05:59:56;4.88;;;2.35;;
11139;SDS011;5624;49.388;11.350;2022-07-29T06:02:22;5.45;;;2.00;;
11139;SDS011;5624;49.388;11.350;2022-07-29T06:04:48;5.43;;;2.53;;
11139;SDS011;5624;49.388;11.350;2022-07-29T06:07:14;5.28;;;2.63;;
11139;SDS011;5624;49.388;11.350;2022-07-29T06:09:41;4.60;;;2.30;;
11139;SDS011;5624;49.388;11.350;2022-07-29T06:12:07;4.78;;;2.30;;
11139;SDS011;5624;49.388;11.350;2022-07-29T06:14:33;4.72;;;2.30;;
11139;SDS011;5624;49.388;11.350;2022-07-29T06:17:00;5.80;;;2.10;;
11139;SDS011;5624;49.388;11.350;2022-07-29T06:19:26;5.53;;;2.20;;
11139;SDS011;5624;49.388;11.350;2022-07-29T06:21:52;6.80;;;2.50;;
11139;SDS011;5624;49.388;11.350;2022-07-29T06:24:17;5.18;;;2.60;;
11139;SDS011;5624;49.388;11.350;2022-07-29T06:26:43;7.13;;;2.55;;
11139;SDS011;5624;49.388;11.350;2022-07-29T06:29:09;6.55;;;2.72;;
11139;SDS011;5624;49.388;11.350;2022-07-29T06:31:36;4.13;;;2.20;;
11139;SDS011;5624;49.388;11.350;2022-07-29T06:34:02;3.17;;;2.30;;
11139;SDS011;5624;49.388;11.350;2022-07-29T06:36:28;4.50;;;2.22;;
11139;SDS011;5624;49.388;11.350;2022-07-29T06:38:54;7.65;;;2.60;;
11139;SDS011;5624;49.388;11.350;2022-07-29T06:41:20;6.10;;;2.53;;
11139;SDS011;5624;49.388;11.350;2022-07-29T06:43:47;5.53;;;2.35;;
11139;SDS011;5624;49.388;11.350;2022-07-29T06:46:14;4.00;;;2.15;;
11139;SDS011;5624;49.388;11.350;2022-07-29T06:48:42;7.80;;;2.70;;
11139;SDS011;5624;49.388;11.350;2022-07-29T06:51:09;4.78;;;2.17;;
11139;SDS011;5624;49.388;11.350;2022-07-29T06:53:36;5.35;;;2.30;;
11139;SDS011;5624;49.388;11.350;2022-07-29T06:56:03;3.45;;;2.10;;
11139;SDS011;5624;49.388;11.350;2022-07-29T06:58:33;4.63;;;2.70;;
11139;SDS011;5624;49.388;11.350;2022-07-29T07:01:01;4.07;;;2.28;;
11139;SDS011;5624;49.388;11.350;2022-07-29T07:03:28;4.55;;;2.33;;
11139;SDS011;5624;49.388;11.350;2022-07-29T07:05:54;5.38;;;2.75;;
11139;SDS011;5624;49.388;11.350;2022-07-29T07:08:20;6.20;;;2.05;;
11139;SDS011;5624;49.388;11.350;2022-07-29T07:10:47;5.88;;;2.53;;
11139;SDS011;5624;49.388;11.350;2022-07-29T07:13:13;4.45;;;2.55;;
11139;SDS011;5624;49.388;11.350;2022-07-29T07:15:39;4.75;;;2.42;;
11139;SDS011;5624;49.388;11.350;2022-07-29T07:18:05;6.68;;;2.67;;
11139;SDS011;5624;49.388;11.350;2022-07-29T07:20:32;4.30;;;2.50;;
11139;SDS011;5624;49.388;11.350;2022-07-29T07:22:59;8.63;;;3.08;;
11139;SDS011;5624;49.388;11.350;2022-07-29T07:25:25;3.63;;;2.60;;
11139;SDS011;5624;49.388;11.350;2022-07-29T07:27:51;3.13;;;2.08;;
11139;SDS011;5624;49.388;11.350;2022-07-29T07:30:16;4.03;;;2.22;;
11139;SDS011;5624;49.388;11.350;2022-07-29T07:32:42;5.63;;;2.35;;
11139;SDS011;5624;49.388;11.350;2022-07-29T07:35:08;3.85;;;2.35;;
11139;SDS011;5624;49.388;11.350;2022-07-29T07:37:35;5.43;;;2.45;;
11139;SDS011;5624;49.388;11.350;2022-07-29T07:40:02;4.90;;;2.50;;
11139;SDS011;5624;49.388;11.350;2022-07-29T07:42:29;4.40;;;2.58;;
11139;SDS011;5624;49.388;11.350;2022-07-29T07:44:55;5.07;;;2.60;;
11139;SDS011;5624;49.388;11.350;2022-07-29T07:47:20;5.82;;;2.60;;
11139;SDS011;5624;49.388;11.350;2022-07-29T07:49:46;3.20;;;2.30;;
11139;SDS011;5624;49.388;11.350;2022-07-29T07:52:13;4.10;;;2.80;;
11139;SDS011;5624;49.388;11.350;2022-07-29T07:54:39;5.80;;;2.17;;
11139;SDS011;5624;49.388;11.350;2022-07-29T07:57:05;4.60;;;2.53;;
11139;SDS011;5624;49.388;11.350;2022-07-29T07:59:31;5.65;;;2.53;;
11139;SDS011;5624;49.388;11.350;2022-07-29T08:01:57;3.17;;;2.40;;
11139;SDS011;5624;49.388;11.350;2022-07-29T08:04:23;4.53;;;2.30;;
11139;SDS011;5624;49.388;11.350;2022-07-29T08:06:49;3.45;;;2.33;;
11139;SDS011;5624;49.388;11.350;2022-07-29T08:09:15;4.63;;;2.40;;
11139;SDS011;5624;49.388;11.350;2022-07-29T08:11:41;3.72;;;2.58;;
11139;SDS011;5624;49.388;11.350;2022-07-29T08:14:07;4.75;;;2.45;;
11139;SDS011;5624;49.388;11.350;2022-07-29T08:16:33;5.43;;;2.75;;
11139;SDS011;5624;49.388;11.350;2022-07-29T08:18:59;4.10;;;2.33;;
11139;SDS011;5624;49.388;11.350;2022-07-29T08:21:24;6.03;;;3.03;;
11139;SDS011;5624;49.388;11.350;2022-07-29T08:23:51;5.00;;;2.67;;
11139;SDS011;5624;49.388;11.350;2022-07-29T08:26:40;3.40;;;2.50;;
11139;SDS011;5624;49.388;11.350;2022-07-29T08:29:07;7.90;;;2.30;;
11139;SDS011;5624;49.388;11.350;2022-07-29T08:31:33;5.28;;;2.38;;
11139;SDS011;5624;49.388;11.350;2022-07-29T08:33:59;3.30;;;2.55;;
11139;SDS011;5624;49.388;11.350;2022-07-29T08:36:25;4.50;;;2.60;;
11139;SDS011;5624;49.388;11.350;2022-07-29T08:38:51;8.02;;;2.58;;
11139;SDS011;5624;49.388;11.350;2022-07-29T08:41:20;4.18;;;2.60;;
11139;SDS011;5624;49.388;11.350;2022-07-29T08:43:47;4.28;;;2.55;;
11139;SDS011;5624;49.388;11.350;2022-07-29T08:46:14;4.97;;;2.90;;
11139;SDS011;5624;49.388;11.350;2022-07-29T08:48:41;6.15;;;2.40;;
11139;SDS011;5624;49.388;11.350;2022-07-29T08:51:07;3.83;;;2.63;;
11139;SDS011;5624;49.388;11.350;2022-07-29T08:53:37;5.97;;;2.63;;
11139;SDS011;5624;49.388;11.350;2022-07-29T08:56:08;4.65;;;2.78;;
11139;SDS011;5624;49.388;11.350;2022-07-29T08:58:37;6.32;;;2.67;;
11139;SDS011;5624;49.388;11.350;2022-07-29T09:01:04;5.60;;;2.75;;
11139;SDS011;5624;49.388;11.350;2022-07-29T09:03:30;6.93;;;3.38;;
11139;SDS011;5624;49.388;11.350;2022-07-29T09:05:59;5.38;;;3.00;;
11139;SDS011;5624;49.388;11.350;2022-07-29T09:08:26;5.53;;;3.30;;
11139;SDS011;5624;49.388;11.350;2022-07-29T09:10:53;6.05;;;3.20;;
11139;SDS011;5624;49.388;11.350;2022-07-29T09:13:21;6.78;;;2.90;;
11139;SDS011;5624;49.388;11.350;2022-07-29T09:15:47;6.45;;;3.55;;
11139;SDS011;5624;49.388;11.350;2022-07-29T09:20:58;4.93;;;2.63;;
11139;SDS011;5624;49.388;11.350;2022-07-29T09:23:58;7.28;;;3.30;;
11139;SDS011;5624;49.388;11.350;2022-07-29T09:26:27;10.48;;;3.30;;
11139;SDS011;5624;49.388;11.350;2022-07-29T09:28:54;6.05;;;2.83;;
11139;SDS011;5624;49.388;11.350;2022-07-29T09:31:21;4.90;;;3.40;;
11139;SDS011;5624;49.388;11.350;2022-07-29T09:33:59;5.85;;;3.10;;
11139;SDS011;5624;49.388;11.350;2022-07-29T09:36:25;7.40;;;3.13;;
11139;SDS011;5624;49.388;11.350;2022-07-29T09:39:01;8.07;;;3.42;;
11139;SDS011;5624;49.388;11.350;2022-07-29T09:41:28;4.18;;;2.92;;
11139;SDS011;5624;49.388;11.350;2022-07-29T09:43:58;7.18;;;2.95;;
11139;SDS011;5624;49.388;11.350;2022-07-29T09:46:25;4.15;;;2.88;;
11139;SDS011;5624;49.388;11.350;2022-07-29T09:49:06;4.88;;;2.67;;
11139;SDS011;5624;49.388;11.350;2022-07-29T09:51:37;5.85;;;3.50;;
11139;SDS011;5624;49.388;11.350;2022-07-29T09:54:21;8.57;;;3.60;;
11139;SDS011;5624;49.388;11.350;2022-07-29T09:56:53;4.40;;;3.17;;
11139;SDS011;5624;49.388;11.350;2022-07-29T09:59:20;4.45;;;3.47;;
11139;SDS011;5624;49.388;11.350;2022-07-29T10:01:48;8.35;;;3.13;;
11139;SDS011;5624;49.388;11.350;2022-07-29T10:04:17;3.97;;;3.00;;
11139;SDS011;5624;49.388;11.350;2022-07-29T10:06:56;8.48;;;3.75;;
11139;SDS011;5624;49.388;11.350;2022-07-29T10:09:23;6.95;;;3.63;;
11139;SDS011;5624;49.388;11.350;2022-07-29T10:12:06;6.07;;;3.45;;
11139;SDS011;5624;49.388;11.350;2022-07-29T10:14:38;3.63;;;2.95;;
11139;SDS011;5624;49.388;11.350;2022-07-29T10:17:06;5.55;;;3.38;;
11139;SDS011;5624;49.388;11.350;2022-07-29T10:19:33;9.32;;;3.53;;
11139;SDS011;5624;49.388;11.350;2022-07-29T10:22:03;6.05;;;3.38;;
11139;SDS011;5624;49.388;11.350;2022-07-29T10:24:31;8.15;;;3.80;;
11139;SDS011;5624;49.388;11.350;2022-07-29T10:26:59;6.38;;;3.15;;
11139;SDS011;5624;49.388;11.350;2022-07-29T10:29:26;4.85;;;3.45;;
11139;SDS011;5624;49.388;11.350;2022-07-29T10:34:57;4.72;;;3.78;;
11139;SDS011;5624;49.388;11.350;2022-07-29T10:43:27;5.50;;;3.40;;
11139;SDS011;5624;49.388;11.350;2022-07-29T10:45:58;4.28;;;3.75;;
11139;SDS011;5624;49.388;11.350;2022-07-29T10:48:25;4.97;;;3.70;;
11139;SDS011;5624;49.388;11.350;2022-07-29T10:50:59;7.75;;;3.75;;
11139;SDS011;5624;49.388;11.350;2022-07-29T10:56:27;6.78;;;3.70;;
11139;SDS011;5624;49.388;11.350;2022-07-29T10:59:36;4.45;;;3.22;;
11139;SDS011;5624;49.388;11.350;2022-07-29T11:01:43;9.35;;;3.40;;
11139;SDS011;5624;49.388;11.350;2022-07-29T11:04:09;7.93;;;3.88;;
11139;SDS011;5624;49.388;11.350;2022-07-29T11:09:29;6.13;;;3.30;;
11139;SDS011;5624;49.388;11.350;2022-07-29T11:11:55;5.10;;;3.33;;
11139;SDS011;5624;49.388;11.350;2022-07-29T11:17:18;4.30;;;3.85;;
11139;SDS011;5624;49.388;11.350;2022-07-29T11:19:44;6.72;;;4.10;;
11139;SDS011;5624;49.388;11.350;2022-07-29T11:22:10;5.00;;;3.78;;
11139;SDS011;5624;49.388;11.350;2022-07-29T11:24:37;7.10;;;3.50;;
11139;SDS011;5624;49.388;11.350;2022-07-29T11:29:35;4.30;;;3.67;;
11139;SDS011;5624;49.388;11.350;2022-07-29T11:32:14;4.90;;;4.10;;
11139;SDS011;5624;49.388;11.350;2022-07-29T11:34:42;4.95;;;4.15;;
11139;SDS011;5624;49.388;11.350;2022-07-29T11:39:38;4.80;;;3.70;;
11139;SDS011;5624;49.388;11.350;2022-07-29T11:42:47;5.65;;;3.83;;
11139;SDS011;5624;49.388;11.350;2022-07-29T11:47:32;6.75;;;3.88;;
11139;SDS011;5624;49.388;11.350;2022-07-29T11:50:02;5.78;;;4.03;;
11139;SDS011;5624;49.388;11.350;2022-07-29T11:52:33;5.38;;;3.55;;
11139;SDS011;5624;49.388;11.350;2022-07-29T11:55:03;5.40;;;3.65;;
11139;SDS011;5624;49.388;11.350;2022-07-29T11:57:30;4.38;;;3.20;;
11139;SDS011;5624;49.388;11.350;2022-07-29T11:59:57;4.85;;;3.38;;
11139;SDS011;5624;49.388;11.350;2022-07-29T12:02:23;6.07;;;3.97;;
11139;SDS011;5624;49.388;11.350;2022-07-29T12:04:55;4.53;;;3.70;;
11139;SDS011;5624;49.388;11.350;2022-07-29T12:07:32;5.10;;;3.92;;
11139;SDS011;5624;49.388;11.350;2022-07-29T12:09:59;6.72;;;3.55;;
11139;SDS011;5624;49.388;11.350;2022-07-29T12:12:26;4.40;;;3.55;;
11139;SDS011;5624;49.388;11.350;2022-07-29T12:14:52;5.00;;;3.72;;
11139;SDS011;5624;49.388;11.350;2022-07-29T12:17:26;5.60;;;4.03;;
11139;SDS011;5624;49.388;11.350;2022-07-29T12:19:57;5.75;;;4.20;;
11139;SDS011;5624;49.388;11.350;2022-07-29T12:22:39;5.97;;;3.90;;
11139;SDS011;5624;49.388;11.350;2022-07-29T12:25:08;7.05;;;3.83;;
11139;SDS011;5624;49.388;11.350;2022-07-29T12:27:37;3.67;;;3.25;;
11139;SDS011;5624;49.388;11.350;2022-07-29T12:30:04;8.88;;;4.15;;
11139;SDS011;5624;49.388;11.350;2022-07-29T12:32:39;5.28;;;3.63;;
11139;SDS011;5624;49.388;11.350;2022-07-29T12:35:07;6.78;;;3.50;;
11139;SDS011;5624;49.388;11.350;2022-07-29T12:37:44;5.43;;;3.42;;
11139;SDS011;5624;49.388;11.350;2022-07-29T12:40:17;3.50;;;3.20;;
11139;SDS011;5624;49.388;11.350;2022-07-29T12:45:40;6.03;;;3.45;;
11139;SDS011;5624;49.388;11.350;2022-07-29T12:48:07;6.55;;;3.83;;
11139;SDS011;5624;49.388;11.350;2022-07-29T12:50:35;6.50;;;3.38;;
11139;SDS011;5624;49.388;11.350;2022-07-29T12:53:19;7.13;;;3.17;;
11139;SDS011;5624;49.388;11.350;2022-07-29T12:55:46;4.80;;;3.58;;
11139;SDS011;5624;49.388;11.350;2022-07-29T13:01:16;7.93;;;2.58;;
11139;SDS011;5624;49.388;11.350;2022-07-29T13:03:45;4.18;;;2.40;;
11139;SDS011;5624;49.388;11.350;2022-07-29T13:09:12;3.17;;;1.85;;
11139;SDS011;5624;49.388;11.350;2022-07-29T13:11:48;4.32;;;1.98;;
11139;SDS011;5624;49.388;11.350;2022-07-29T13:14:31;2.80;;;2.08;;
11139;SDS011;5624;49.388;11.350;2022-07-29T13:17:05;4.82;;;1.90;;
11139;SDS011;5624;49.388;11.350;2022-07-29T13:22:06;2.55;;;2.30;;
11139;SDS011;5624;49.388;11.350;2022-07-29T13:24:44;2.35;;;1.70;;
11139;SDS011;5624;49.388;11.350;2022-07-29T13:27:29;6.95;;;2.20;;
11139;SDS011;5624;49.388;11.350;2022-07-29T13:29:57;2.72;;;2.00;;
11139;SDS011;5624;49.388;11.350;2022-07-29T13:32:26;6.40;;;2.30;;
11139;SDS011;5624;49.388;11.350;2022-07-29T13:34:57;2.60;;;1.95;;
11139;SDS011;5624;49.388;11.350;2022-07-29T13:37:27;6.15;;;2.70;;
11139;SDS011;5624;49.388;11.350;2022-07-29T13:39:57;4.70;;;2.60;;
11139;SDS011;5624;49.388;11.350;2022-07-29T13:42:24;4.57;;;2.85;;
11139;SDS011;5624;49.388;11.350;2022-07-29T13:44:51;6.40;;;3.00;;
11139;SDS011;5624;49.388;11.350;2022-07-29T13:47:21;6.82;;;2.90;;
11139;SDS011;5624;49.388;11.350;2022-07-29T13:49:47;4.07;;;2.58;;
11139;SDS011;5624;49.388;11.350;2022-07-29T13:52:13;8.45;;;4.50;;
11139;SDS011;5624;49.388;11.350;2022-07-29T13:54:39;6.32;;;3.67;;
11139;SDS011;5624;49.388;11.350;2022-07-29T13:57:05;4.40;;;3.20;;
11139;SDS011;5624;49.388;11.350;2022-07-29T13:59:31;6.30;;;3.40;;
11139;SDS011;5624;49.388;11.350;2022-07-29T14:01:57;6.43;;;3.47;;
11139;SDS011;5624;49.388;11.350;2022-07-29T14:04:23;4.47;;;3.13;;
11139;SDS011;5624;49.388;11.350;2022-07-29T14:06:49;11.45;;;3.22;;
11139;SDS011;5624;49.388;11.350;2022-07-29T14:09:15;7.50;;;3.35;;
11139;SDS011;5624;49.388;11.350;2022-07-29T14:11:42;6.68;;;3.65;;
11139;SDS011;5624;49.388;11.350;2022-07-29T14:14:11;7.10;;;3.72;;
11139;SDS011;5624;49.388;11.350;2022-07-29T14:16:36;7.53;;;3.75;;
11139;SDS011;5624;49.388;11.350;2022-07-29T14:19:02;4.05;;;3.13;;
11139;SDS011;5624;49.388;11.350;2022-07-29T14:21:28;6.68;;;4.10;;
11139;SDS011;5624;49.388;11.350;2022-07-29T14:23:54;6.80;;;3.75;;
11139;SDS011;5624;49.388;11.350;2022-07-29T14:26:21;5.80;;;3.17;;
11139;SDS011;5624;49.388;11.350;2022-07-29T14:28:47;5.28;;;3.30;;
11139;SDS011;5624;49.388;11.350;2022-07-29T14:31:14;7.47;;;3.47;;
11139;SDS011;5624;49.388;11.350;2022-07-29T14:33:41;4.03;;;3.22;;
11139;SDS011;5624;49.388;11.350;2022-07-29T14:36:08;6.28;;;3.22;;
11139;SDS011;5624;49.388;11.350;2022-07-29T14:38:34;7.22;;;3.28;;
11139;SDS011;5624;49.388;11.350;2022-07-29T14:41:00;6.65;;;3.10;;
11139;SDS011;5624;49.388;11.350;2022-07-29T14:43:26;4.57;;;3.22;;
11139;SDS011;5624;49.388;11.350;2022-07-29T14:45:53;4.53;;;3.20;;
11139;SDS011;5624;49.388;11.350;2022-07-29T14:48:18;4.35;;;3.13;;
11139;SDS011;5624;49.388;11.350;2022-07-29T14:50:44;4.90;;;2.75;;
11139;SDS011;5624;49.388;11.350;2022-07-29T14:53:10;4.22;;;3.03;;
11139;SDS011;5624;49.388;11.350;2022-07-29T14:55:39;3.80;;;3.00;;
11139;SDS011;5624;49.388;11.350;2022-07-29T14:58:07;4.18;;;2.50;;
11139;SDS011;5624;49.388;11.350;2022-07-29T15:00:33;3.42;;;2.47;;
11139;SDS011;5624;49.388;11.350;2022-07-29T15:02:59;3.58;;;2.55;;
11139;SDS011;5624;49.388;11.350;2022-07-29T15:05:26;3.53;;;2.53;;
11139;SDS011;5624;49.388;11.350;2022-07-29T15:07:52;3.70;;;2.42;;
11139;SDS011;5624;49.388;11.350;2022-07-29T15:10:18;3.60;;;2.40;;
11139;SDS011;5624;49.388;11.350;2022-07-29T15:12:44;4.03;;;2.58;;
11139;SDS011;5624;49.388;11.350;2022-07-29T15:15:10;3.88;;;2.67;;
11139;SDS011;5624;49.388;11.350;2022-07-29T15:17:36;3.45;;;2.78;;
11139;SDS011;5624;49.388;11.350;2022-07-29T15:20:02;5.18;;;2.78;;
11139;SDS011;5624;49.388;11.350;2022-07-29T15:22:28;4.68;;;2.53;;
11139;SDS011;5624;49.388;11.350;2022-07-29T15:24:54;3.33;;;2.25;;
11139;SDS011;5624;49.388;11.350;2022-07-29T15:27:20;4.35;;;2.28;;
11139;SDS011;5624;49.388;11.350;2022-07-29T15:29:46;4.22;;;2.67;;
11139;SDS011;5624;49.388;11.350;2022-07-29T15:32:12;5.60;;;2.45;;
11139;SDS011;5624;49.388;11.350;2022-07-29T15:34:37;4.60;;;2.50;;
11139;SDS011;5624;49.388;11.350;2022-07-29T15:37:04;5.78;;;2.80;;
11139;SDS011;5624;49.388;11.350;2022-07-29T15:39:30;4.82;;;2.95;;
11139;SDS011;5624;49.388;11.350;2022-07-29T15:41:56;5.22;;;2.58;;
11139;SDS011;5624;49.388;11.350;2022-07-29T15:44:23;4.00;;;2.60;;
11139;SDS011;5624;49.388;11.350;2022-07-29T15:46:49;5.13;;;2.78;;